createdAt,value
2019-05-11T08:07:23.846Z,25.30
2019-05-11T08:09:52.053Z,27.10
2019-05-11T08:12:20.260Z,24.83
2019-05-11T08:14:57.766Z,26.50
2019-05-11T08:17:18.760Z,28.53
2019-05-11T08:19:47.702Z,30.17
2019-05-11T08:22:16.004Z,29.13
2019-05-11T08:24:44.216Z,29.37
2019-05-11T08:27:12.423Z,30.23
2019-05-11T08:29:40.632Z,31.20
2019-05-11T08:32:08.856Z,29.43
2019-05-11T08:34:37.073Z,33.20
2019-05-11T08:37:05.302Z,33.17
2019-05-11T08:39:33.532Z,32.73
2019-05-11T08:42:03.318Z,33.87
2019-05-11T08:44:31.734Z,32.77
2019-05-11T08:46:59.942Z,32.17
2019-05-11T08:49:28.824Z,31.47
2019-05-11T08:51:57.990Z,30.07
2019-05-11T08:54:28.656Z,30.40
2019-05-11T08:56:58.541Z,29.57
2019-05-11T08:59:27.857Z,29.07
2019-05-11T09:01:58.535Z,27.53
2019-05-11T09:04:28.622Z,27.80
2019-05-11T09:06:58.445Z,28.77
2019-05-11T09:09:28.440Z,28.93
2019-05-11T09:11:55.895Z,27.97
2019-05-11T09:14:24.113Z,28.20
2019-05-11T09:16:52.306Z,24.83
2019-05-11T09:19:20.514Z,22.90
2019-05-11T09:21:48.716Z,21.37
2019-05-11T09:24:18.961Z,20.97
2019-05-11T09:26:47.949Z,20.70
2019-05-11T09:29:17.942Z,19.33
2019-05-11T09:31:48.561Z,18.47
2019-05-11T09:34:18.116Z,17.43
2019-05-11T09:36:47.955Z,17.50
2019-05-11T09:39:17.753Z,17.27
2019-05-11T09:41:46.040Z,15.93
2019-05-11T09:44:14.261Z,14.07
2019-05-11T09:46:45.036Z,14.13
2019-05-11T09:49:13.260Z,13.13
2019-05-11T09:51:41.762Z,16.77
2019-05-11T09:54:10.130Z,14.30
2019-05-11T09:56:40.856Z,14.47
2019-05-11T09:59:09.091Z,14.43
2019-05-11T10:01:37.956Z,15.03
2019-05-11T10:04:08.755Z,12.93
2019-05-11T10:06:38.828Z,14.23
2019-05-11T10:09:08.203Z,13.03
2019-05-11T10:11:36.685Z,13.43
2019-05-11T10:14:04.998Z,12.93
2019-05-11T10:16:33.205Z,14.33
2019-05-11T10:19:01.421Z,13.33
2019-05-11T10:21:29.623Z,13.10
2019-05-11T10:23:58.097Z,12.63
2019-05-11T10:26:27.897Z,12.23
2019-05-11T10:28:58.312Z,13.73
2019-05-11T10:31:28.535Z,12.67
2019-05-11T10:36:15.604Z,11.93
2019-05-11T10:38:43.849Z,12.50
2019-05-11T10:41:12.072Z,11.70
2019-05-11T10:43:40.284Z,11.83
2019-05-11T10:46:16.946Z,12.70
2019-05-11T10:48:39.024Z,12.63
2019-05-11T10:51:08.270Z,12.77
2019-05-11T10:53:38.439Z,12.77
2019-05-11T10:56:08.563Z,12.90
2019-05-11T10:58:37.911Z,11.87
2019-05-11T11:01:08.628Z,11.93
2019-05-11T11:03:37.738Z,10.10
2019-05-11T11:06:08.289Z,10.90
2019-05-11T11:08:38.119Z,10.47
2019-05-11T11:11:08.053Z,9.93
2019-05-11T11:13:35.828Z,9.93
2019-05-11T11:16:04.106Z,9.37
2019-05-11T11:18:32.299Z,8.87
2019-05-11T11:21:00.555Z,10.03
2019-05-11T11:23:28.762Z,9.60
2019-05-11T11:25:58.577Z,10.13
2019-05-11T11:28:28.006Z,9.57
2019-05-11T11:30:58.295Z,9.63
2019-05-11T11:33:27.701Z,9.60
2019-05-11T11:35:57.950Z,8.03
2019-05-11T11:38:28.059Z,9.73
2019-05-11T11:40:55.789Z,9.97
2019-05-11T11:43:24.093Z,9.70
2019-05-11T11:45:52.260Z,9.10
2019-05-11T11:48:20.472Z,10.40
2019-05-11T11:50:48.955Z,9.03
2019-05-11T11:53:18.834Z,8.27
2019-05-11T11:55:48.190Z,8.00
2019-05-11T11:58:22.660Z,8.03
2019-05-11T12:00:48.229Z,7.57
2019-05-11T12:03:18.540Z,7.80
2019-05-11T12:05:47.741Z,7.67
2019-05-11T12:08:16.106Z,6.80
2019-05-11T12:10:44.304Z,6.50
2019-05-11T12:13:12.565Z,6.63
2019-05-11T12:15:40.781Z,7.20
2019-05-11T12:18:08.974Z,6.47
2019-05-11T12:20:38.902Z,6.87
2019-05-11T12:23:08.733Z,6.60
2019-05-11T12:25:40.236Z,7.40
2019-05-11T12:41:08.798Z,7.30
2019-05-11T12:43:38.191Z,7.80
2019-05-11T12:46:08.124Z,7.30
2019-05-11T12:48:37.873Z,6.87
2019-05-11T12:51:08.043Z,7.17
2019-05-11T12:53:37.881Z,7.47
2019-05-11T12:56:08.271Z,7.23
2019-05-11T12:58:36.112Z,7.23
2019-05-11T13:01:04.319Z,8.53
2019-05-11T13:03:32.546Z,8.27
2019-05-11T13:06:00.750Z,8.57
2019-05-11T13:08:28.954Z,8.20
2019-05-11T13:10:58.435Z,7.37
2019-05-11T13:13:28.562Z,7.20
2019-05-11T13:15:58.560Z,7.10
2019-05-11T13:18:27.927Z,8.23
2019-05-11T13:20:58.595Z,8.33
2019-05-11T13:23:27.784Z,8.50
2019-05-11T13:25:58.359Z,7.70
2019-05-11T13:28:28.235Z,6.80
2019-05-11T13:30:58.019Z,7.70
2019-05-11T13:33:27.822Z,6.40
2019-05-11T13:35:57.836Z,7.10
2019-05-11T13:38:28.119Z,6.53
2019-05-11T13:40:55.695Z,7.30
2019-05-11T13:43:23.908Z,7.67
2019-05-11T13:45:52.092Z,7.37
2019-05-11T13:48:20.293Z,9.23
2019-05-11T13:50:48.487Z,8.47
2019-05-11T13:53:18.434Z,8.53
2019-05-11T13:55:48.103Z,8.53
2019-05-11T13:58:19.466Z,8.50
2019-05-11T14:00:48.096Z,8.67
2019-05-11T14:03:18.348Z,7.93
2019-05-11T14:05:47.897Z,7.50
2019-05-11T14:08:18.352Z,7.57
2019-05-11T14:10:46.078Z,8.60
2019-05-11T14:13:14.281Z,8.67
2019-05-11T14:15:42.467Z,8.93
2019-05-11T14:18:12.051Z,8.83
2019-05-11T14:20:40.340Z,8.40
2019-05-11T14:23:08.548Z,9.53
2019-05-11T14:25:38.103Z,8.83
2019-05-11T14:28:08.887Z,9.70
2019-05-11T14:30:38.675Z,8.17
2019-05-11T14:33:08.599Z,8.63
2019-05-11T14:35:38.371Z,9.93
2019-05-11T14:38:08.021Z,8.77
2019-05-11T14:40:38.709Z,8.97
2019-05-11T14:43:08.371Z,8.33
2019-05-11T14:45:38.037Z,8.57
2019-05-11T14:48:22.135Z,9.07
2019-05-11T14:50:38.448Z,8.83
2019-05-11T14:53:08.446Z,8.73
2019-05-11T14:55:38.095Z,8.47
2019-05-11T14:58:09.168Z,7.53
2019-05-11T15:00:39.216Z,8.90
2019-05-11T15:03:07.892Z,8.43
2019-05-11T15:05:37.609Z,8.63
2019-05-11T15:08:06.089Z,10.10
2019-05-11T15:10:34.292Z,10.00
2019-05-11T15:13:02.504Z,10.20
2019-05-11T15:15:30.703Z,10.33
2019-05-11T15:17:58.912Z,9.47
2019-05-11T15:20:28.451Z,10.03
2019-05-11T15:22:58.133Z,10.00
2019-05-11T15:25:28.651Z,9.87
2019-05-11T15:27:58.125Z,10.07
2019-05-11T15:30:28.534Z,11.00
2019-05-11T15:32:58.065Z,10.67
2019-05-11T15:35:28.282Z,9.50
2019-05-11T15:37:58.055Z,10.37
2019-05-11T15:40:27.833Z,10.33
2019-05-11T15:42:58.340Z,9.97
2019-05-11T15:45:27.703Z,10.77
2019-05-11T15:47:56.154Z,12.57
2019-05-11T15:50:24.400Z,16.93
2019-05-11T15:52:52.586Z,10.57
2019-05-11T15:55:22.429Z,12.27
2019-05-11T15:57:50.622Z,12.70
2019-05-11T16:00:18.872Z,9.83
2019-05-11T16:02:49.039Z,9.33
2019-05-11T16:05:18.194Z,9.07
2019-05-11T16:07:48.903Z,7.93
2019-05-11T16:10:18.820Z,7.30
2019-05-11T16:12:48.571Z,9.00
2019-05-11T16:15:19.105Z,8.57
2019-05-11T16:17:48.759Z,8.90
2019-05-11T16:20:18.122Z,9.40
2019-05-11T16:22:47.945Z,8.97
2019-05-11T16:25:19.287Z,8.87
2019-05-11T16:27:46.295Z,9.00
2019-05-11T16:30:14.501Z,8.40
2019-05-11T16:32:42.706Z,8.30
2019-05-11T16:35:10.911Z,9.90
2019-05-11T16:37:39.099Z,9.77
2019-05-11T16:40:07.774Z,8.30
2019-05-11T16:42:38.293Z,8.67
2019-05-11T16:45:08.480Z,9.10
2019-05-11T16:47:38.935Z,9.50
2019-05-11T16:50:08.519Z,11.90
2019-05-11T16:52:38.624Z,11.43
2019-05-11T16:55:07.870Z,9.40
2019-05-11T16:57:38.211Z,10.27
2019-05-11T17:00:08.813Z,9.20
2019-05-11T17:02:38.210Z,9.50
2019-05-11T17:05:07.855Z,8.27
2019-05-11T17:07:37.685Z,9.00
2019-05-11T17:10:08.320Z,9.30
2019-05-11T17:12:38.746Z,9.20
2019-05-11T17:15:09.797Z,8.60
2019-05-11T17:17:38.002Z,8.33
2019-05-11T17:20:08.055Z,9.27
2019-05-11T17:22:38.737Z,9.30
2019-05-11T17:25:08.558Z,10.27
2019-05-11T17:27:37.721Z,10.30
2019-05-11T17:30:08.822Z,10.57
2019-05-11T17:32:38.270Z,10.27
2019-05-11T17:35:08.464Z,10.33
2019-05-11T17:37:38.026Z,10.13
2019-05-11T17:40:08.998Z,10.40
2019-05-11T17:42:37.822Z,9.80
2019-05-11T17:45:08.114Z,10.13
2019-05-11T17:47:38.694Z,10.00
2019-05-11T17:50:08.161Z,9.70
2019-05-11T17:52:38.424Z,9.93
2019-05-11T17:55:07.007Z,10.70
2019-05-11T17:57:35.202Z,10.70
2019-05-11T18:00:05.124Z,9.77
2019-05-11T18:02:33.316Z,10.23
2019-05-11T18:05:01.522Z,9.47
2019-05-11T18:07:30.920Z,8.77
2019-05-11T18:09:59.403Z,8.87
2019-05-11T18:12:28.555Z,9.27
2019-05-11T18:14:58.543Z,8.67
2019-05-11T18:17:26.848Z,10.57
2019-05-11T18:19:55.041Z,9.13
2019-05-11T18:22:23.243Z,10.03
2019-05-11T18:24:51.450Z,9.03
2019-05-11T18:27:19.642Z,9.70
2019-05-11T18:29:48.561Z,10.30
2019-05-11T18:32:16.938Z,9.80
2019-05-11T18:34:45.127Z,10.03
2019-05-11T18:37:13.357Z,10.20
2019-05-11T18:39:41.617Z,10.17
2019-05-11T18:42:09.834Z,11.77
2019-05-11T18:44:38.102Z,9.57
2019-05-11T18:47:08.656Z,9.93
2019-05-11T18:49:38.200Z,10.57
2019-05-11T18:52:08.209Z,11.13
2019-05-11T18:54:38.368Z,10.10
2019-05-11T18:57:08.131Z,9.17
2019-05-11T18:59:37.840Z,9.93
2019-05-11T19:02:08.237Z,10.63
2019-05-11T19:04:38.037Z,10.83
2019-05-11T19:07:14.253Z,10.37
2019-05-11T19:09:37.449Z,10.50
2019-05-11T19:12:05.548Z,11.43
2019-05-11T19:14:33.740Z,9.93
2019-05-11T19:17:01.955Z,9.03
2019-05-11T19:19:30.138Z,9.57
2019-05-11T19:21:58.764Z,9.40
2019-05-11T19:24:27.784Z,9.43
2019-05-11T19:26:58.702Z,12.20
2019-05-11T19:29:28.190Z,12.07
2019-05-11T19:31:58.043Z,11.50
2019-05-11T19:34:27.995Z,11.60
2019-05-11T19:36:57.960Z,10.00
2019-05-11T19:39:27.905Z,10.73
2019-05-11T19:41:57.989Z,10.53
2019-05-11T19:44:27.845Z,11.10
2019-05-11T19:46:55.642Z,11.27
2019-05-11T19:49:23.839Z,9.23
2019-05-11T19:51:52.056Z,10.50
2019-05-11T19:54:20.251Z,10.33
2019-05-11T19:56:51.779Z,9.57
2019-05-11T19:59:18.385Z,8.93
2019-05-11T20:01:46.597Z,8.80
2019-05-11T20:04:14.785Z,10.90
2019-05-11T20:06:42.998Z,9.87
2019-05-11T20:09:11.198Z,9.87
2019-05-11T20:11:39.400Z,8.93
2019-05-11T20:14:08.135Z,9.40
2019-05-11T20:16:36.488Z,9.67
2019-05-11T20:19:04.674Z,8.97
2019-05-11T20:21:32.889Z,10.30
2019-05-11T20:24:01.096Z,9.47
2019-05-11T20:26:29.286Z,9.27
2019-05-11T20:28:58.799Z,8.07
2019-05-11T20:31:27.704Z,9.33
2019-05-11T20:33:56.063Z,9.43
2019-05-11T20:36:24.257Z,9.17
2019-05-11T20:38:52.460Z,8.27
2019-05-11T20:41:20.649Z,8.33
2019-05-11T20:43:48.854Z,9.30
2019-05-11T20:46:18.472Z,10.33
2019-05-11T20:48:48.534Z,8.90
2019-05-11T20:51:32.761Z,8.90
2019-05-11T20:53:48.839Z,10.07
2019-05-11T20:56:17.838Z,8.57
2019-05-11T20:58:59.509Z,9.43
2019-05-11T21:01:28.879Z,8.10
2019-05-11T21:03:58.513Z,9.30
2019-05-11T21:06:29.347Z,10.07
2019-05-11T21:08:56.997Z,9.53
2019-05-11T21:11:25.145Z,8.17
2019-05-11T21:13:53.355Z,7.83
2019-05-11T21:16:21.629Z,7.83
2019-05-11T21:18:49.853Z,8.17
2019-05-11T21:21:18.061Z,8.57
2019-05-11T21:23:48.655Z,8.77
2019-05-11T21:26:18.674Z,7.43
2019-05-11T21:28:48.530Z,8.17
2019-05-11T21:31:18.404Z,8.60
2019-05-11T21:33:46.083Z,7.80
2019-05-11T21:36:14.284Z,8.77
2019-05-11T21:38:42.503Z,8.83
2019-05-11T21:41:10.730Z,8.57
2019-05-11T21:43:38.949Z,7.97
2019-05-11T21:46:08.145Z,7.50
2019-05-11T21:48:38.472Z,8.00
2019-05-11T21:51:08.517Z,8.20
2019-05-11T21:53:38.200Z,8.27
2019-05-11T21:56:08.122Z,8.13
2019-05-11T21:58:37.770Z,7.90
2019-05-11T22:01:06.231Z,8.27
2019-05-11T22:03:34.454Z,9.07
2019-05-11T22:06:02.645Z,9.77
2019-05-11T22:08:30.868Z,9.20
2019-05-11T22:11:00.024Z,9.40
2019-05-11T22:13:28.890Z,8.97
2019-05-11T22:15:58.098Z,9.33
2019-05-11T22:18:30.819Z,8.53
2019-05-11T22:20:57.984Z,8.67
2019-05-11T22:23:28.206Z,8.37
2019-05-11T22:25:58.710Z,7.80
2019-05-11T22:28:28.452Z,7.90
2019-05-11T22:30:56.422Z,7.37
2019-05-11T22:33:24.627Z,6.77
2019-05-11T22:35:52.839Z,6.30
2019-05-11T22:38:21.104Z,6.17
2019-05-11T22:40:49.331Z,5.77
2019-05-11T22:43:18.168Z,5.93
2019-05-11T22:45:48.530Z,5.27
2019-05-11T22:48:16.457Z,5.60
2019-05-11T22:50:44.663Z,6.33
2019-05-11T22:53:12.863Z,4.73
2019-05-11T22:55:41.080Z,5.50
2019-05-11T22:58:09.282Z,5.83
2019-05-11T23:00:39.797Z,5.57
2019-05-11T23:03:10.796Z,5.30
2019-05-11T23:05:38.353Z,5.57
2019-05-11T23:08:07.653Z,4.97
2019-05-11T23:10:36.063Z,5.47
2019-05-11T23:13:04.259Z,5.40
2019-05-11T23:15:32.466Z,5.33
2019-05-11T23:18:00.667Z,5.63
2019-05-11T23:20:30.198Z,5.17
2019-05-11T23:23:01.505Z,5.47
2019-05-11T23:25:28.846Z,5.27
2019-05-11T23:27:58.743Z,5.13
2019-05-11T23:30:28.062Z,4.30
2019-05-11T23:32:58.590Z,5.00
2019-05-11T23:35:28.434Z,4.37
2019-05-11T23:37:58.085Z,5.07
2019-05-11T23:40:28.398Z,5.13
2019-05-11T23:42:57.880Z,5.27
2019-05-11T23:45:27.940Z,6.03
2019-05-11T23:47:56.114Z,5.03
2019-05-11T23:50:24.318Z,5.10
2019-05-11T23:53:05.384Z,5.40
2019-05-11T23:55:22.442Z,6.07
2019-05-11T23:57:50.648Z,4.73
